createdAt,value
2018-01-08T00:02:07.935Z,97.49
2018-01-08T00:04:35.634Z,97.40
2018-01-08T00:07:03.349Z,97.13
2018-01-08T00:09:31.042Z,96.62
2018-01-08T00:11:58.799Z,97.49
2018-01-08T00:14:26.500Z,97.69
2018-01-08T00:16:54.286Z,97.58
2018-01-08T00:19:21.957Z,98.03
2018-01-08T00:21:49.690Z,98.05
2018-01-08T00:24:17.456Z,97.76
2018-01-08T00:26:45.167Z,97.43
2018-01-08T00:29:12.902Z,97.22
2018-01-08T00:31:40.580Z,97.05
2018-01-08T00:34:08.281Z,96.86
2018-01-08T00:36:36.007Z,96.91
2018-01-08T00:39:03.830Z,97.27
2018-01-08T00:41:31.573Z,97.33
2018-01-08T00:43:59.365Z,97.45
2018-01-08T00:46:27.102Z,97.44
2018-01-08T00:48:54.818Z,97.40
2018-01-08T00:51:22.564Z,97.35
2018-01-08T00:53:50.279Z,97.49
2018-01-08T00:56:18.052Z,97.38
2018-01-08T00:58:45.794Z,97.15
2018-01-08T01:01:13.490Z,97.30
2018-01-08T01:03:41.214Z,97.10
2018-01-08T01:06:09.022Z,96.72
2018-01-08T01:08:36.759Z,96.86
2018-01-08T01:11:04.447Z,97.22
2018-01-08T01:13:32.181Z,97.28
2018-01-08T01:15:59.873Z,97.22
2018-01-08T01:18:28.866Z,96.79
2018-01-08T01:20:56.560Z,96.45
2018-01-08T01:23:24.306Z,95.98
2018-01-08T01:25:52.024Z,96.03
2018-01-08T01:28:19.854Z,96.25
2018-01-08T01:30:47.565Z,96.35
2018-01-08T01:33:15.268Z,96.68
2018-01-08T01:35:43.013Z,96.53
2018-01-08T01:38:10.707Z,96.10
2018-01-08T01:40:38.539Z,95.96
2018-01-08T01:43:06.272Z,96.14
2018-01-08T01:45:33.946Z,95.99
2018-01-08T01:48:01.671Z,95.69
2018-01-08T01:50:29.371Z,96.01
2018-01-08T01:52:57.052Z,96.29
2018-01-08T01:55:24.784Z,96.07
2018-01-08T01:57:52.514Z,95.70
2018-01-08T02:00:20.279Z,95.39
2018-01-08T02:02:48.016Z,95.25
2018-01-08T02:05:15.798Z,95.58
2018-01-08T02:07:43.459Z,95.55
2018-01-08T02:10:12.202Z,95.67
2018-01-08T02:12:39.891Z,95.93
2018-01-08T02:15:07.849Z,95.93
2018-01-08T02:17:35.679Z,96.34
2018-01-08T02:20:03.381Z,96.35
2018-01-08T02:22:31.147Z,96.15
2018-01-08T02:24:58.888Z,96.08
2018-01-08T02:27:26.612Z,95.91
2018-01-08T02:29:54.352Z,95.71
2018-01-08T02:32:22.112Z,95.66
2018-01-08T02:34:49.806Z,95.45
2018-01-08T02:37:17.574Z,95.20
2018-01-08T02:39:45.323Z,94.96
2018-01-08T02:42:13.068Z,94.74
2018-01-08T02:44:40.833Z,95.08
2018-01-08T02:47:08.622Z,95.84
2018-01-08T02:49:36.335Z,95.94
2018-01-08T02:52:04.023Z,95.88
2018-01-08T02:54:31.755Z,95.53
2018-01-08T02:56:59.484Z,95.14
2018-01-08T02:59:27.163Z,94.82
2018-01-08T03:01:54.857Z,95.01
2018-01-08T03:04:22.600Z,95.63
2018-01-08T03:06:50.341Z,95.44
2018-01-08T03:09:18.086Z,95.60
2018-01-08T03:11:45.768Z,95.50
2018-01-08T03:14:13.508Z,95.44
2018-01-08T03:16:41.212Z,95.13
2018-01-08T03:19:09.002Z,95.18
2018-01-08T03:21:36.775Z,95.65
2018-01-08T03:24:04.460Z,95.34
2018-01-08T03:26:32.151Z,95.47
2018-01-08T03:28:59.901Z,95.76
2018-01-08T03:31:27.929Z,95.36
2018-01-08T03:33:55.683Z,95.34
2018-01-08T03:36:23.376Z,95.33
2018-01-08T03:38:51.090Z,95.10
2018-01-08T03:41:18.844Z,95.04
2018-01-08T03:43:46.545Z,94.90
2018-01-08T03:46:14.285Z,94.70
2018-01-08T03:48:42.012Z,94.63
2018-01-08T03:51:09.748Z,95.12
2018-01-08T03:53:37.455Z,95.19
2018-01-08T03:56:06.147Z,95.42
2018-01-08T03:58:33.828Z,95.42
2018-01-08T04:01:01.527Z,95.43
2018-01-08T04:03:29.233Z,95.55
2018-01-08T04:05:56.979Z,95.55
2018-01-08T04:08:24.685Z,95.48
2018-01-08T04:10:52.367Z,94.73
2018-01-08T04:13:20.086Z,94.54
2018-01-08T04:15:47.812Z,94.73
2018-01-08T04:18:15.611Z,95.48
2018-01-08T04:20:43.352Z,95.20
2018-01-08T04:23:11.078Z,94.96
2018-01-08T04:25:38.800Z,94.89
2018-01-08T04:28:06.502Z,94.76
2018-01-08T04:30:34.238Z,94.62
2018-01-08T04:33:01.941Z,94.46
2018-01-08T04:35:29.709Z,94.40
2018-01-08T04:37:57.404Z,95.39
2018-01-08T04:40:25.181Z,95.77
2018-01-08T04:42:52.872Z,95.52
2018-01-08T04:45:20.610Z,95.26
2018-01-08T04:47:48.324Z,95.03
2018-01-08T04:50:16.083Z,95.36
2018-01-08T04:52:43.813Z,95.34
2018-01-08T04:55:11.590Z,95.19
2018-01-08T04:57:39.360Z,95.29
2018-01-08T05:00:07.109Z,95.05
2018-01-08T05:02:34.898Z,95.38
2018-01-08T05:05:02.640Z,95.56
2018-01-08T05:07:30.368Z,95.44
2018-01-08T05:09:58.106Z,95.21
2018-01-08T05:12:25.949Z,95.22
2018-01-08T05:14:53.646Z,94.85
2018-01-08T05:17:21.379Z,94.68
2018-01-08T05:19:49.123Z,94.78
2018-01-08T05:22:16.827Z,95.16
2018-01-08T05:24:44.546Z,95.19
2018-01-08T05:27:12.235Z,95.32
2018-01-08T05:29:39.962Z,95.39
2018-01-08T05:32:07.656Z,95.26
2018-01-08T05:34:35.404Z,95.04
2018-01-08T05:37:03.337Z,94.43
2018-01-08T05:39:31.118Z,94.37
2018-01-08T05:41:58.818Z,93.72
2018-01-08T05:44:26.571Z,94.24
2018-01-08T05:46:54.240Z,94.86
2018-01-08T05:49:22.026Z,95.20
2018-01-08T05:51:49.695Z,95.26
2018-01-08T05:54:17.446Z,94.59
2018-01-08T05:56:45.179Z,94.06
2018-01-08T05:59:12.884Z,94.64
2018-01-08T06:01:40.670Z,94.53
2018-01-08T06:04:09.135Z,94.72
2018-01-08T06:06:36.843Z,95.38
2018-01-08T06:09:04.600Z,95.37
2018-01-08T06:11:32.407Z,95.28
2018-01-08T06:14:00.124Z,95.44
2018-01-08T06:16:27.832Z,95.20
2018-01-08T06:18:55.612Z,95.51
2018-01-08T06:21:23.355Z,95.43
2018-01-08T06:23:51.152Z,95.43
2018-01-08T06:26:18.841Z,95.73
2018-01-08T06:28:46.602Z,95.27
2018-01-08T06:31:14.341Z,94.85
2018-01-08T06:33:42.089Z,94.75
2018-01-08T06:36:09.865Z,95.07
2018-01-08T06:38:37.560Z,94.96
2018-01-08T06:41:05.726Z,94.91
2018-01-08T06:43:33.496Z,95.08
2018-01-08T06:46:01.725Z,94.53
2018-01-08T06:48:29.504Z,94.21
2018-01-08T06:50:57.393Z,93.95
2018-01-08T06:53:25.086Z,94.50
2018-01-08T06:55:52.806Z,94.88
2018-01-08T06:58:20.534Z,94.55
2018-01-08T07:00:48.318Z,95.05
2018-01-08T07:03:16.098Z,94.83
2018-01-08T07:05:43.831Z,94.54
2018-01-08T07:08:11.627Z,94.67
2018-01-08T07:10:39.345Z,95.07
2018-01-08T07:13:07.086Z,95.25
2018-01-08T07:15:34.863Z,94.90
2018-01-08T07:18:02.598Z,94.64
2018-01-08T07:20:30.324Z,94.31
2018-01-08T07:22:58.077Z,94.04
2018-01-08T07:25:25.777Z,93.87
2018-01-08T07:27:53.463Z,93.90
2018-01-08T07:30:21.176Z,93.83
2018-01-08T07:32:48.972Z,94.20
2018-01-08T07:35:16.768Z,94.22
2018-01-08T07:37:44.460Z,94.60
2018-01-08T07:40:12.180Z,94.52
2018-01-08T07:42:39.919Z,94.52
2018-01-08T07:45:07.688Z,94.47
2018-01-08T07:47:35.510Z,94.25
2018-01-08T07:50:03.296Z,93.93
2018-01-08T07:52:31.121Z,93.69
2018-01-08T07:54:58.829Z,93.52
2018-01-08T07:57:26.541Z,94.10
2018-01-08T07:59:54.335Z,94.18
2018-01-08T08:02:22.028Z,94.13
2018-01-08T08:04:49.741Z,93.76
2018-01-08T08:07:17.493Z,93.55
2018-01-08T08:09:45.189Z,93.53
2018-01-08T08:12:12.952Z,93.87
2018-01-08T08:14:40.705Z,94.20
2018-01-08T08:17:08.424Z,93.21
2018-01-08T08:19:36.194Z,92.90
2018-01-08T08:22:03.926Z,92.55
2018-01-08T08:24:31.800Z,93.59
2018-01-08T08:26:59.529Z,94.41
2018-01-08T08:29:27.320Z,94.29
2018-01-08T08:31:55.159Z,93.71
2018-01-08T08:34:22.865Z,93.27
2018-01-08T08:36:50.616Z,94.14
2018-01-08T08:39:18.348Z,94.17
2018-01-08T08:41:46.039Z,93.99
2018-01-08T08:44:13.777Z,94.02
2018-01-08T08:46:41.502Z,93.92
2018-01-08T08:49:09.265Z,93.46
2018-01-08T08:51:37.076Z,93.03
2018-01-08T08:54:04.826Z,92.78
2018-01-08T08:56:32.566Z,93.82
2018-01-08T08:59:00.276Z,94.51
2018-01-08T09:01:27.975Z,94.61
2018-01-08T09:03:56.020Z,93.62
2018-01-08T09:06:23.724Z,93.16
2018-01-08T09:08:51.588Z,93.35
2018-01-08T09:11:19.340Z,93.63
2018-01-08T09:13:47.047Z,93.81
2018-01-08T09:16:14.841Z,95.05
2018-01-08T09:18:42.528Z,95.06
2018-01-08T09:21:10.299Z,95.03
2018-01-08T09:23:38.493Z,94.50
2018-01-08T09:26:06.250Z,93.71
2018-01-08T09:28:34.004Z,93.13
2018-01-08T09:31:01.777Z,92.47
2018-01-08T09:33:30.433Z,91.93
2018-01-08T09:35:58.186Z,91.96
2018-01-08T09:38:26.136Z,92.58
2018-01-08T09:40:53.924Z,93.47
2018-01-08T09:43:21.629Z,93.47
2018-01-08T09:45:49.539Z,93.72
2018-01-08T09:48:17.765Z,93.56
2018-01-08T09:50:45.578Z,92.71
2018-01-08T09:53:13.402Z,91.81
2018-01-08T09:55:41.271Z,91.25
2018-01-08T09:58:09.001Z,91.53
2018-01-08T10:00:38.031Z,90.32
2018-01-08T10:03:17.397Z,90.16
2018-01-08T10:05:57.008Z,87.43
2018-01-08T10:08:36.295Z,87.06
2018-01-08T10:11:15.790Z,86.67
2018-01-08T10:13:55.164Z,87.33
2018-01-08T10:16:34.768Z,86.72
2018-01-08T10:19:14.288Z,86.80
2018-01-08T10:21:42.131Z,88.56
2018-01-08T10:24:09.915Z,89.76
2018-01-08T10:26:37.933Z,89.96
2018-01-08T10:29:05.761Z,89.67
2018-01-08T10:31:33.518Z,89.91
2018-01-08T10:34:01.275Z,89.30
2018-01-08T10:36:29.054Z,88.70
2018-01-08T10:38:56.932Z,89.22
2018-01-08T10:41:30.262Z,89.13
2018-01-08T10:44:03.402Z,88.58
2018-01-08T10:46:37.687Z,88.91
2018-01-08T10:49:11.110Z,89.26
2018-01-08T10:51:41.382Z,89.67
2018-01-08T10:54:09.183Z,89.77
2018-01-08T10:56:36.949Z,90.03
2018-01-08T10:59:04.664Z,90.75
2018-01-08T11:01:37.964Z,91.15
2018-01-08T11:04:05.668Z,92.01
2018-01-08T11:06:33.433Z,93.16
2018-01-08T11:09:01.226Z,92.14
2018-01-08T11:11:29.021Z,91.41
2018-01-08T11:13:56.869Z,91.95
2018-01-08T11:16:24.637Z,91.86
2018-01-08T11:18:52.424Z,90.80
2018-01-08T11:21:20.213Z,91.18
2018-01-08T11:23:47.965Z,90.64
2018-01-08T11:26:15.795Z,89.32
2018-01-08T11:28:43.551Z,89.00
2018-01-08T11:31:11.260Z,89.56
2018-01-08T11:33:39.040Z,90.41
2018-01-08T11:36:07.062Z,91.83
2018-01-08T11:38:34.856Z,92.02
2018-01-08T11:41:02.664Z,91.90
2018-01-08T11:43:30.507Z,91.84
2018-01-08T11:45:58.341Z,92.37
2018-01-08T11:48:26.138Z,92.85
2018-01-08T11:50:53.978Z,92.43
2018-01-08T11:53:22.358Z,92.70
2018-01-08T11:55:50.122Z,93.33
2018-01-08T11:58:17.963Z,92.72
2018-01-08T12:00:45.796Z,91.15
2018-01-08T12:03:13.618Z,90.67
2018-01-08T12:05:41.425Z,90.50
2018-01-08T12:08:09.392Z,90.47
2018-01-08T12:10:37.230Z,91.13
2018-01-08T12:13:04.991Z,91.19
2018-01-08T12:15:32.841Z,92.04
2018-01-08T12:18:00.593Z,91.31
2018-01-08T12:20:28.394Z,91.49
2018-01-08T12:22:56.157Z,91.98
2018-01-08T12:25:23.927Z,92.45
2018-01-08T12:27:51.656Z,93.47
2018-01-08T12:30:19.424Z,93.41
2018-01-08T12:32:47.244Z,92.95
2018-01-08T12:35:15.024Z,92.29
2018-01-08T12:37:42.788Z,91.61
2018-01-08T12:40:11.368Z,92.80
2018-01-08T12:42:39.085Z,93.57
2018-01-08T12:45:06.827Z,93.54
2018-01-08T12:47:34.565Z,93.76
2018-01-08T12:50:02.320Z,94.42
2018-01-08T12:52:30.043Z,94.49
2018-01-08T12:54:57.766Z,93.38
2018-01-08T12:57:25.663Z,92.23
2018-01-08T12:59:53.364Z,91.39
2018-01-08T13:02:21.190Z,91.83
2018-01-08T13:04:49.015Z,91.90
2018-01-08T13:07:17.036Z,91.76
2018-01-08T13:09:44.828Z,92.17
2018-01-08T13:12:12.531Z,91.77
2018-01-08T13:14:40.335Z,93.03
2018-01-08T13:17:08.257Z,93.59
2018-01-08T13:19:36.148Z,93.54
2018-01-08T13:22:03.899Z,93.62
2018-01-08T13:24:31.879Z,94.18
2018-01-08T13:26:59.634Z,94.17
2018-01-08T13:29:27.468Z,93.17
2018-01-08T13:31:55.241Z,93.09
2018-01-08T13:34:23.089Z,92.72
2018-01-08T13:36:50.846Z,92.42
2018-01-08T13:39:18.682Z,94.17
2018-01-08T13:41:46.552Z,93.76
2018-01-08T13:44:14.292Z,94.21
2018-01-08T13:46:42.976Z,94.31
2018-01-08T13:49:10.726Z,93.58
2018-01-08T13:51:38.567Z,94.43
2018-01-08T13:54:06.277Z,94.64
2018-01-08T13:56:34.132Z,94.39
2018-01-08T13:59:01.918Z,93.64
2018-01-08T14:01:29.792Z,93.95
2018-01-08T14:03:57.630Z,93.66
2018-01-08T14:06:25.491Z,93.44
2018-01-08T14:08:53.300Z,93.45
2018-01-08T14:11:21.145Z,93.58
2018-01-08T14:13:48.904Z,93.71
2018-01-08T14:16:16.725Z,93.87
2018-01-08T14:18:44.446Z,92.83
2018-01-08T14:21:12.138Z,92.25
2018-01-08T14:23:39.925Z,91.75
2018-01-08T14:26:07.726Z,91.36
2018-01-08T14:28:35.557Z,92.69
2018-01-08T14:31:03.378Z,93.30
2018-01-08T14:33:31.127Z,92.71
2018-01-08T14:35:58.906Z,92.54
2018-01-08T14:38:27.804Z,93.36
2018-01-08T14:40:55.577Z,93.68
2018-01-08T14:43:23.807Z,93.37
2018-01-08T14:45:51.732Z,93.69
2018-01-08T14:48:20.700Z,93.90
2018-01-08T14:50:48.568Z,94.28
2018-01-08T14:53:16.839Z,93.66
2018-01-08T14:55:44.575Z,93.66
2018-01-08T14:58:12.356Z,94.62
2018-01-08T15:00:40.097Z,94.90
2018-01-08T15:03:07.884Z,94.95
2018-01-08T15:05:35.614Z,94.53
2018-01-08T15:08:03.380Z,94.68
2018-01-08T15:10:31.315Z,95.66
2018-01-08T15:12:59.186Z,95.96
2018-01-08T15:15:27.236Z,95.52
2018-01-08T15:17:54.993Z,95.57
2018-01-08T15:20:22.900Z,95.57
2018-01-08T15:22:50.610Z,95.50
2018-01-08T15:25:19.178Z,95.62
2018-01-08T15:27:47.988Z,95.13
2018-01-08T15:30:15.809Z,95.06
2018-01-08T15:32:44.197Z,95.80
2018-01-08T15:35:12.833Z,96.07
2018-01-08T15:37:40.595Z,96.73
2018-01-08T15:40:08.438Z,97.11
2018-01-08T15:42:36.278Z,97.06
2018-01-08T15:45:04.225Z,96.76
2018-01-08T15:47:32.075Z,96.54
2018-01-08T15:49:59.824Z,96.75
2018-01-08T15:52:28.817Z,97.16
2018-01-08T15:54:56.653Z,96.84
2018-01-08T15:57:24.428Z,97.14
2018-01-08T15:59:52.129Z,97.61
2018-01-08T16:02:19.952Z,97.66
2018-01-08T16:04:47.771Z,97.80
2018-01-08T16:07:15.667Z,97.71
2018-01-08T16:09:43.580Z,97.52
2018-01-08T16:12:11.402Z,97.65
2018-01-08T16:14:39.270Z,97.21
2018-01-08T16:17:07.032Z,96.99
2018-01-08T16:19:34.878Z,96.82
2018-01-08T16:22:02.645Z,96.81
2018-01-08T16:24:32.638Z,96.78
2018-01-08T16:27:01.127Z,96.50
2018-01-08T16:29:28.865Z,96.63
2018-01-08T16:31:56.641Z,96.69
2018-01-08T16:34:24.411Z,96.29
2018-01-08T16:36:53.165Z,96.83
2018-01-08T16:39:21.092Z,96.93
2018-01-08T16:41:49.700Z,96.42
2018-01-08T16:44:17.586Z,96.46
2018-01-08T16:46:45.416Z,96.85
2018-01-08T16:49:13.156Z,97.09
2018-01-08T16:51:41.019Z,96.92
2018-01-08T16:54:09.236Z,96.87
2018-01-08T16:56:37.106Z,97.82
2018-01-08T16:59:05.727Z,98.43
2018-01-08T17:01:33.823Z,98.59
2018-01-08T17:04:01.944Z,98.77
2018-01-08T17:06:29.748Z,98.65
2018-01-08T17:08:57.570Z,98.62
2018-01-08T17:11:25.331Z,98.41
2018-01-08T17:13:53.047Z,98.15
2018-01-08T17:16:20.836Z,97.78
2018-01-08T17:18:48.681Z,97.40
2018-01-08T17:21:17.705Z,96.89
2018-01-08T17:23:45.471Z,97.81
2018-01-08T17:26:13.514Z,98.19
2018-01-08T17:28:41.411Z,98.23
2018-01-08T17:31:09.260Z,98.19
2018-01-08T17:33:38.508Z,98.22
2018-01-08T17:36:06.976Z,98.23
2018-01-08T17:38:34.786Z,98.29
2018-01-08T17:41:02.615Z,98.26
2018-01-08T17:43:30.359Z,98.60
2018-01-08T17:45:58.299Z,99.16
2018-01-08T17:48:26.112Z,99.27
2018-01-08T17:50:53.878Z,99.18
2018-01-08T17:53:21.804Z,98.95
2018-01-08T17:55:49.645Z,98.78
2018-01-08T17:58:17.464Z,98.79
2018-01-08T18:00:45.265Z,98.70
2018-01-08T18:03:13.075Z,98.45
2018-01-08T18:05:40.908Z,98.38
2018-01-08T18:08:09.824Z,98.51
2018-01-08T18:10:37.934Z,99.55
2018-01-08T18:13:05.864Z,99.21
2018-01-08T18:15:33.654Z,99.44
2018-01-08T18:18:01.604Z,99.44
2018-01-08T18:20:29.422Z,99.49
2018-01-08T18:22:57.327Z,99.54
2018-01-08T18:25:25.071Z,99.34
2018-01-08T18:27:52.869Z,99.18
2018-01-08T18:30:20.724Z,99.66
2018-01-08T18:32:48.592Z,99.76
2018-01-08T18:35:16.426Z,99.78
2018-01-08T18:37:44.350Z,99.65
2018-01-08T18:40:12.093Z,99.57
2018-01-08T18:42:40.090Z,99.47
2018-01-08T18:45:08.168Z,99.33
2018-01-08T18:47:36.224Z,99.43
2018-01-08T18:50:04.186Z,99.85
2018-01-08T18:52:32.038Z,99.65
2018-01-08T18:55:00.058Z,99.31
2018-01-08T18:57:28.299Z,99.26
2018-01-08T18:59:56.430Z,99.08
2018-01-08T19:02:24.940Z,99.04
2018-01-08T19:04:53.387Z,99.37
2018-01-08T19:07:21.403Z,99.29
2018-01-08T19:09:49.754Z,98.98
2018-01-08T19:12:19.817Z,99.03
2018-01-08T19:14:48.539Z,99.36
2018-01-08T19:17:20.225Z,99.36
2018-01-08T19:19:48.356Z,99.19
2018-01-08T19:22:16.402Z,99.71
2018-01-08T19:24:45.780Z,100.00
2018-01-08T19:27:13.596Z,99.86
2018-01-08T19:29:41.743Z,99.54
2018-01-08T19:32:11.803Z,99.19
2018-01-08T19:34:41.357Z,99.26
2018-01-08T19:37:09.304Z,99.33
2018-01-08T19:39:37.091Z,99.50
2018-01-08T19:42:05.213Z,99.53
2018-01-08T19:44:33.296Z,99.43
2018-01-08T19:47:01.099Z,99.66
2018-01-08T19:49:28.899Z,99.62
2018-01-08T19:51:56.686Z,99.49
2018-01-08T19:54:24.442Z,99.49
2018-01-08T19:56:52.249Z,99.22
2018-01-08T19:59:20.018Z,99.02
2018-01-08T20:01:47.822Z,98.90
2018-01-08T20:04:17.021Z,98.92
2018-01-08T20:06:45.088Z,98.83
2018-01-08T20:09:14.978Z,98.55
2018-01-08T20:11:42.995Z,98.26
2018-01-08T20:14:11.346Z,98.12
2018-01-08T20:16:39.236Z,98.36
2018-01-08T20:19:07.024Z,98.38
2018-01-08T20:21:35.016Z,98.40
2018-01-08T20:24:02.762Z,98.49
2018-01-08T20:26:30.607Z,98.57
2018-01-08T20:28:58.380Z,98.98
2018-01-08T20:31:26.494Z,99.39
2018-01-08T20:33:54.526Z,99.40
2018-01-08T20:36:25.187Z,99.26
2018-01-08T20:38:52.910Z,98.95
2018-01-08T20:41:20.819Z,98.63
2018-01-08T20:43:48.891Z,98.59
2018-01-08T20:46:16.783Z,98.71
2018-01-08T20:48:44.877Z,98.53
2018-01-08T20:51:12.712Z,98.21
2018-01-08T20:53:43.497Z,98.06
2018-01-08T20:56:11.286Z,98.22
2018-01-08T20:58:39.011Z,98.46
2018-01-08T21:01:06.854Z,98.56
2018-01-08T21:03:35.886Z,98.73
2018-01-08T21:06:04.069Z,98.80
2018-01-08T21:08:32.222Z,98.57
2018-01-08T21:11:01.034Z,98.05
2018-01-08T21:13:29.675Z,97.76
2018-01-08T21:15:59.562Z,97.47
2018-01-08T21:18:27.397Z,97.46
2018-01-08T21:20:55.198Z,97.50
2018-01-08T21:23:23.043Z,97.68
2018-01-08T21:25:50.840Z,97.90
2018-01-08T21:28:19.203Z,97.98
2018-01-08T21:30:47.270Z,97.87
2018-01-08T21:33:15.150Z,98.08
2018-01-08T21:35:43.680Z,98.05
2018-01-08T21:38:11.559Z,97.98
2018-01-08T21:40:39.883Z,97.66
2018-01-08T21:43:07.798Z,97.50
2018-01-08T21:45:35.515Z,97.80
2018-01-08T21:48:03.318Z,98.25
2018-01-08T21:50:31.297Z,98.43
2018-01-08T21:53:02.087Z,98.39
2018-01-08T21:55:29.887Z,98.52
2018-01-08T21:57:58.867Z,98.42
2018-01-08T22:00:26.828Z,98.31
2018-01-08T22:02:57.724Z,98.17
2018-01-08T22:05:25.612Z,98.06
2018-01-08T22:07:53.545Z,97.77
2018-01-08T22:10:21.273Z,98.05
2018-01-08T22:12:49.632Z,97.96
2018-01-08T22:15:17.481Z,97.93
2018-01-08T22:17:46.896Z,98.11
2018-01-08T22:20:15.465Z,98.84
2018-01-08T22:22:43.275Z,98.85
2018-01-08T22:25:11.109Z,98.82
2018-01-08T22:27:39.705Z,99.03
2018-01-08T22:30:08.075Z,99.16
2018-01-08T22:32:36.549Z,99.12
2018-01-08T22:35:04.265Z,99.10
2018-01-08T22:37:32.068Z,98.97
2018-01-08T22:39:59.964Z,98.94
2018-01-08T22:42:27.669Z,98.85
2018-01-08T22:44:55.486Z,98.78
2018-01-08T22:47:23.780Z,98.55
2018-01-08T22:49:51.556Z,98.48
2018-01-08T22:52:19.351Z,98.45
2018-01-08T22:54:47.101Z,98.48
2018-01-08T22:57:14.947Z,98.68
2018-01-08T22:59:42.714Z,98.94
2018-01-08T23:02:10.536Z,98.95
2018-01-08T23:04:38.426Z,98.74
2018-01-08T23:07:06.894Z,98.87
2018-01-08T23:09:34.761Z,98.71
2018-01-08T23:12:02.570Z,98.44
2018-01-08T23:14:30.387Z,98.38
2018-01-08T23:16:58.211Z,98.29
2018-01-08T23:19:25.966Z,98.05
2018-01-08T23:21:53.727Z,98.01
2018-01-08T23:24:21.488Z,98.06
2018-01-08T23:26:49.264Z,97.99
2018-01-08T23:29:17.124Z,97.80
2018-01-08T23:31:45.362Z,97.87
2018-01-08T23:34:13.164Z,98.34
2018-01-08T23:36:41.001Z,98.45
2018-01-08T23:39:08.801Z,98.22
2018-01-08T23:41:36.692Z,98.06
2018-01-08T23:44:04.429Z,97.89
2018-01-08T23:46:32.217Z,97.64
2018-01-08T23:49:00.070Z,97.81
2018-01-08T23:51:27.934Z,97.88
2018-01-08T23:53:55.640Z,97.91
2018-01-08T23:56:23.388Z,97.73
2018-01-08T23:58:51.166Z,96.11
